sensor_id;sensor_type;location;lat;lon;timestamp;temperature;humidity
24103;DHT22;12278;53.058;9.028;2022-11-20T00:01:21;0.90;99.90
24103;DHT22;12278;53.058;9.028;2022-11-20T00:05:22;0.90;99.90
24103;DHT22;12278;53.058;9.028;2022-11-20T00:09:23;1.00;99.90
24103;DHT22;12278;53.058;9.028;2022-11-20T00:13:23;0.90;99.90
24103;DHT22;12278;53.058;9.028;2022-11-20T00:17:24;1.00;99.90
24103;DHT22;12278;53.058;9.028;2022-11-20T00:21:26;1.00;99.90
24103;DHT22;12278;53.058;9.028;2022-11-20T00:25:46;1.10;99.90
24103;DHT22;12278;53.058;9.028;2022-11-20T00:29:47;1.10;99.90
24103;DHT22;12278;53.058;9.028;2022-11-20T00:33:48;1.00;99.90
24103;DHT22;12278;53.058;9.028;2022-11-20T00:38:00;1.00;99.90
24103;DHT22;12278;53.058;9.028;2022-11-20T00:42:00;1.10;99.90
24103;DHT22;12278;53.058;9.028;2022-11-20T00:46:03;1.10;99.90
24103;DHT22;12278;53.058;9.028;2022-11-20T00:50:04;1.10;99.90
24103;DHT22;12278;53.058;9.028;2022-11-20T00:54:05;1.10;99.90
24103;DHT22;12278;53.058;9.028;2022-11-20T00:58:06;1.10;99.90
24103;DHT22;12278;53.058;9.028;2022-11-20T01:02:07;1.00;99.90
24103;DHT22;12278;53.058;9.028;2022-11-20T01:06:35;1.10;99.90
24103;DHT22;12278;53.058;9.028;2022-11-20T01:10:42;1.10;99.90
24103;DHT22;12278;53.058;9.028;2022-11-20T01:14:42;1.10;99.90
24103;DHT22;12278;53.058;9.028;2022-11-20T01:18:46;1.10;99.90
24103;DHT22;12278;53.058;9.028;2022-11-20T01:22:53;1.20;99.90
24103;DHT22;12278;53.058;9.028;2022-11-20T01:26:54;1.30;99.90
24103;DHT22;12278;53.058;9.028;2022-11-20T01:30:54;1.30;99.90
24103;DHT22;12278;53.058;9.028;2022-11-20T01:34:55;1.20;99.90
24103;DHT22;12278;53.058;9.028;2022-11-20T01:39:01;1.20;99.90
24103;DHT22;12278;53.058;9.028;2022-11-20T01:43:16;1.30;99.90
24103;DHT22;12278;53.058;9.028;2022-11-20T01:47:36;1.20;99.90
24103;DHT22;12278;53.058;9.028;2022-11-20T01:51:48;1.30;99.90
24103;DHT22;12278;53.058;9.028;2022-11-20T01:55:53;1.20;99.90
24103;DHT22;12278;53.058;9.028;2022-11-20T02:00:05;1.30;99.90
24103;DHT22;12278;53.058;9.028;2022-11-20T02:04:07;1.30;99.90
24103;DHT22;12278;53.058;9.028;2022-11-20T02:08:08;1.30;99.90
24103;DHT22;12278;53.058;9.028;2022-11-20T02:12:09;1.30;99.90
24103;DHT22;12278;53.058;9.028;2022-11-20T02:16:33;1.30;99.90
24103;DHT22;12278;53.058;9.028;2022-11-20T02:20:34;1.30;99.90
24103;DHT22;12278;53.058;9.028;2022-11-20T02:24:35;1.20;99.90
24103;DHT22;12278;53.058;9.028;2022-11-20T02:28:35;1.20;99.90
24103;DHT22;12278;53.058;9.028;2022-11-20T02:32:42;1.20;99.90
24103;DHT22;12278;53.058;9.028;2022-11-20T02:36:43;1.20;99.90
24103;DHT22;12278;53.058;9.028;2022-11-20T02:40:44;1.20;99.90
24103;DHT22;12278;53.058;9.028;2022-11-20T02:44:45;1.20;99.90
24103;DHT22;12278;53.058;9.028;2022-11-20T02:48:47;1.20;99.90
24103;DHT22;12278;53.058;9.028;2022-11-20T02:52:48;1.10;99.90
24103;DHT22;12278;53.058;9.028;2022-11-20T02:56:48;1.10;99.90
24103;DHT22;12278;53.058;9.028;2022-11-20T03:00:49;1.10;99.90
24103;DHT22;12278;53.058;9.028;2022-11-20T03:04:49;1.10;99.90
24103;DHT22;12278;53.058;9.028;2022-11-20T03:08:50;1.10;99.90
24103;DHT22;12278;53.058;9.028;2022-11-20T03:12:56;1.00;99.90
24103;DHT22;12278;53.058;9.028;2022-11-20T03:16:56;1.10;99.90
24103;DHT22;12278;53.058;9.028;2022-11-20T03:20:58;1.00;99.90
24103;DHT22;12278;53.058;9.028;2022-11-20T03:24:59;1.10;99.90
24103;DHT22;12278;53.058;9.028;2022-11-20T03:29:02;1.00;99.90
24103;DHT22;12278;53.058;9.028;2022-11-20T03:33:03;1.00;99.90
24103;DHT22;12278;53.058;9.028;2022-11-20T03:37:04;1.10;99.90
24103;DHT22;12278;53.058;9.028;2022-11-20T03:41:49;1.10;99.90
24103;DHT22;12278;53.058;9.028;2022-11-20T03:45:30;1.20;99.90
24103;DHT22;12278;53.058;9.028;2022-11-20T03:49:31;1.20;99.90
24103;DHT22;12278;53.058;9.028;2022-11-20T03:53:31;1.20;99.90
24103;DHT22;12278;53.058;9.028;2022-11-20T03:57:32;1.20;99.90
24103;DHT22;12278;53.058;9.028;2022-11-20T04:01:36;1.30;99.90
24103;DHT22;12278;53.058;9.028;2022-11-20T04:05:37;1.20;99.90
24103;DHT22;12278;53.058;9.028;2022-11-20T04:09:38;1.30;99.90
24103;DHT22;12278;53.058;9.028;2022-11-20T04:13:39;1.20;99.90
24103;DHT22;12278;53.058;9.028;2022-11-20T04:17:40;1.20;99.90
24103;DHT22;12278;53.058;9.028;2022-11-20T04:21:42;1.30;99.90
24103;DHT22;12278;53.058;9.028;2022-11-20T04:25:43;1.30;99.90
24103;DHT22;12278;53.058;9.028;2022-11-20T04:29:44;1.30;99.90
24103;DHT22;12278;53.058;9.028;2022-11-20T04:33:45;1.30;99.90
24103;DHT22;12278;53.058;9.028;2022-11-20T04:37:45;1.30;99.90
24103;DHT22;12278;53.058;9.028;2022-11-20T04:41:46;1.20;99.90
24103;DHT22;12278;53.058;9.028;2022-11-20T04:45:51;1.20;99.90
24103;DHT22;12278;53.058;9.028;2022-11-20T04:49:51;1.30;99.90
24103;DHT22;12278;53.058;9.028;2022-11-20T04:53:52;1.30;99.90
24103;DHT22;12278;53.058;9.028;2022-11-20T04:57:53;1.40;99.90
24103;DHT22;12278;53.058;9.028;2022-11-20T05:01:54;1.40;99.90
24103;DHT22;12278;53.058;9.028;2022-11-20T05:06:03;1.40;99.90
24103;DHT22;12278;53.058;9.028;2022-11-20T05:10:04;1.30;99.90
24103;DHT22;12278;53.058;9.028;2022-11-20T05:14:05;1.30;99.90
24103;DHT22;12278;53.058;9.028;2022-11-20T05:18:06;1.40;99.90
24103;DHT22;12278;53.058;9.028;2022-11-20T05:22:07;1.30;99.90
24103;DHT22;12278;53.058;9.028;2022-11-20T05:26:17;1.20;99.90
24103;DHT22;12278;53.058;9.028;2022-11-20T05:30:18;1.30;99.90
24103;DHT22;12278;53.058;9.028;2022-11-20T05:34:18;1.30;99.90
24103;DHT22;12278;53.058;9.028;2022-11-20T05:38:19;1.20;99.90
24103;DHT22;12278;53.058;9.028;2022-11-20T05:42:20;1.40;99.90
24103;DHT22;12278;53.058;9.028;2022-11-20T05:46:33;1.40;99.90
24103;DHT22;12278;53.058;9.028;2022-11-20T05:50:33;1.40;99.90
24103;DHT22;12278;53.058;9.028;2022-11-20T05:54:34;1.40;99.90
24103;DHT22;12278;53.058;9.028;2022-11-20T05:58:35;1.40;99.90
24103;DHT22;12278;53.058;9.028;2022-11-20T06:02:36;1.40;99.90
24103;DHT22;12278;53.058;9.028;2022-11-20T06:06:36;1.40;99.90
24103;DHT22;12278;53.058;9.028;2022-11-20T06:10:37;1.40;99.90
24103;DHT22;12278;53.058;9.028;2022-11-20T06:14:37;1.40;99.90
24103;DHT22;12278;53.058;9.028;2022-11-20T06:18:38;1.40;99.90
24103;DHT22;12278;53.058;9.028;2022-11-20T06:22:39;1.40;99.90
24103;DHT22;12278;53.058;9.028;2022-11-20T06:26:40;1.50;99.90
24103;DHT22;12278;53.058;9.028;2022-11-20T06:30:45;1.50;99.90
24103;DHT22;12278;53.058;9.028;2022-11-20T06:34:46;1.50;99.90
24103;DHT22;12278;53.058;9.028;2022-11-20T06:38:47;1.40;99.90
24103;DHT22;12278;53.058;9.028;2022-11-20T06:42:47;1.50;99.90
24103;DHT22;12278;53.058;9.028;2022-11-20T06:46:48;1.50;99.90
24103;DHT22;12278;53.058;9.028;2022-11-20T06:50:49;1.40;99.90
24103;DHT22;12278;53.058;9.028;2022-11-20T06:54:49;1.40;99.90
24103;DHT22;12278;53.058;9.028;2022-11-20T06:58:50;1.50;99.90
24103;DHT22;12278;53.058;9.028;2022-11-20T07:02:50;1.40;99.90
24103;DHT22;12278;53.058;9.028;2022-11-20T07:06:51;1.40;99.90
24103;DHT22;12278;53.058;9.028;2022-11-20T07:11:00;1.40;99.90
24103;DHT22;12278;53.058;9.028;2022-11-20T07:15:02;1.40;99.90
24103;DHT22;12278;53.058;9.028;2022-11-20T07:19:02;1.40;99.90
24103;DHT22;12278;53.058;9.028;2022-11-20T07:23:03;1.50;99.90
24103;DHT22;12278;53.058;9.028;2022-11-20T07:27:08;1.50;99.90
24103;DHT22;12278;53.058;9.028;2022-11-20T07:31:10;1.50;99.90
24103;DHT22;12278;53.058;9.028;2022-11-20T07:35:12;1.40;99.90
24103;DHT22;12278;53.058;9.028;2022-11-20T07:39:12;1.40;99.90
24103;DHT22;12278;53.058;9.028;2022-11-20T07:43:13;1.50;99.90
24103;DHT22;12278;53.058;9.028;2022-11-20T07:47:17;1.40;99.90
24103;DHT22;12278;53.058;9.028;2022-11-20T07:51:17;1.40;99.90
24103;DHT22;12278;53.058;9.028;2022-11-20T07:55:18;1.50;99.90
24103;DHT22;12278;53.058;9.028;2022-11-20T07:59:18;1.50;99.90
24103;DHT22;12278;53.058;9.028;2022-11-20T08:03:21;1.50;99.90
24103;DHT22;12278;53.058;9.028;2022-11-20T08:07:22;1.50;99.90
24103;DHT22;12278;53.058;9.028;2022-11-20T08:11:22;1.60;99.90
24103;DHT22;12278;53.058;9.028;2022-11-20T08:15:51;1.80;99.90
24103;DHT22;12278;53.058;9.028;2022-11-20T08:19:52;1.80;99.90
24103;DHT22;12278;53.058;9.028;2022-11-20T08:23:52;1.70;99.90
24103;DHT22;12278;53.058;9.028;2022-11-20T08:28:15;1.70;99.90
24103;DHT22;12278;53.058;9.028;2022-11-20T08:32:25;1.60;99.90
24103;DHT22;12278;53.058;9.028;2022-11-20T08:36:26;1.70;99.90
24103;DHT22;12278;53.058;9.028;2022-11-20T08:40:27;1.70;99.90
24103;DHT22;12278;53.058;9.028;2022-11-20T08:44:28;1.60;99.90
24103;DHT22;12278;53.058;9.028;2022-11-20T08:48:28;1.70;99.90
24103;DHT22;12278;53.058;9.028;2022-11-20T08:52:29;1.80;99.90
24103;DHT22;12278;53.058;9.028;2022-11-20T08:56:33;2.10;99.90
24103;DHT22;12278;53.058;9.028;2022-11-20T09:00:34;2.40;99.90
24103;DHT22;12278;53.058;9.028;2022-11-20T09:04:36;2.30;99.90
24103;DHT22;12278;53.058;9.028;2022-11-20T09:08:39;2.30;99.90
24103;DHT22;12278;53.058;9.028;2022-11-20T09:12:51;2.30;99.90
24103;DHT22;12278;53.058;9.028;2022-11-20T09:16:52;2.40;99.90
24103;DHT22;12278;53.058;9.028;2022-11-20T09:20:58;2.40;99.90
24103;DHT22;12278;53.058;9.028;2022-11-20T09:24:59;2.40;99.90
24103;DHT22;12278;53.058;9.028;2022-11-20T09:29:08;2.50;99.90
24103;DHT22;12278;53.058;9.028;2022-11-20T09:33:09;2.30;99.90
24103;DHT22;12278;53.058;9.028;2022-11-20T09:37:14;2.40;99.90
24103;DHT22;12278;53.058;9.028;2022-11-20T09:54:18;2.40;99.90
24103;DHT22;12278;53.058;9.028;2022-11-20T09:58:35;2.50;99.90
24103;DHT22;12278;53.058;9.028;2022-11-20T10:03:35;2.50;99.90
24103;DHT22;12278;53.058;9.028;2022-11-20T10:12:18;2.50;99.90
24103;DHT22;12278;53.058;9.028;2022-11-20T10:16:54;2.50;99.90
24103;DHT22;12278;53.058;9.028;2022-11-20T10:21:15;2.40;99.90
24103;DHT22;12278;53.058;9.028;2022-11-20T10:25:24;2.40;99.90
24103;DHT22;12278;53.058;9.028;2022-11-20T10:29:38;2.40;99.90
24103;DHT22;12278;53.058;9.028;2022-11-20T10:33:49;2.30;99.90
24103;DHT22;12278;53.058;9.028;2022-11-20T10:38:02;2.30;99.90
24103;DHT22;12278;53.058;9.028;2022-11-20T10:42:11;2.30;99.90
24103;DHT22;12278;53.058;9.028;2022-11-20T10:46:17;2.40;99.90
24103;DHT22;12278;53.058;9.028;2022-11-20T10:50:21;2.40;99.90
24103;DHT22;12278;53.058;9.028;2022-11-20T10:54:43;2.40;99.90
24103;DHT22;12278;53.058;9.028;2022-11-20T10:59:12;2.20;99.90
24103;DHT22;12278;53.058;9.028;2022-11-20T11:03:29;2.20;99.90
24103;DHT22;12278;53.058;9.028;2022-11-20T11:07:35;2.10;99.90
24103;DHT22;12278;53.058;9.028;2022-11-20T11:11:38;2.10;99.90
24103;DHT22;12278;53.058;9.028;2022-11-20T11:15:40;2.00;99.90
24103;DHT22;12278;53.058;9.028;2022-11-20T11:19:41;2.10;99.90
24103;DHT22;12278;53.058;9.028;2022-11-20T11:23:42;2.00;99.90
24103;DHT22;12278;53.058;9.028;2022-11-20T11:28:20;2.00;99.90
24103;DHT22;12278;53.058;9.028;2022-11-20T11:32:21;1.90;99.90
24103;DHT22;12278;53.058;9.028;2022-11-20T11:36:22;2.00;99.90
24103;DHT22;12278;53.058;9.028;2022-11-20T11:40:26;2.00;99.90
24103;DHT22;12278;53.058;9.028;2022-11-20T11:44:32;2.00;99.90
24103;DHT22;12278;53.058;9.028;2022-11-20T11:53:18;2.40;99.90
24103;DHT22;12278;53.058;9.028;2022-11-20T11:57:44;2.50;99.90
24103;DHT22;12278;53.058;9.028;2022-11-20T12:01:48;2.50;99.90
24103;DHT22;12278;53.058;9.028;2022-11-20T12:06:01;2.70;99.90
24103;DHT22;12278;53.058;9.028;2022-11-20T12:10:04;2.90;99.90
24103;DHT22;12278;53.058;9.028;2022-11-20T12:18:28;2.90;99.90
24103;DHT22;12278;53.058;9.028;2022-11-20T12:22:49;2.70;99.90
24103;DHT22;12278;53.058;9.028;2022-11-20T12:36:14;2.50;99.90
24103;DHT22;12278;53.058;9.028;2022-11-20T12:40:32;2.50;99.90
24103;DHT22;12278;53.058;9.028;2022-11-20T12:53:59;2.50;99.90
24103;DHT22;12278;53.058;9.028;2022-11-20T12:58:20;2.50;99.90
24103;DHT22;12278;53.058;9.028;2022-11-20T13:03:28;2.50;99.90
24103;DHT22;12278;53.058;9.028;2022-11-20T13:07:13;2.40;99.90
24103;DHT22;12278;53.058;9.028;2022-11-20T13:15:51;2.60;99.90
24103;DHT22;12278;53.058;9.028;2022-11-20T13:19:56;3.00;99.90
24103;DHT22;12278;53.058;9.028;2022-11-20T13:28:30;3.50;99.90
24103;DHT22;12278;53.058;9.028;2022-11-20T13:32:32;4.20;99.90
24103;DHT22;12278;53.058;9.028;2022-11-20T13:36:33;4.40;99.90
24103;DHT22;12278;53.058;9.028;2022-11-20T13:40:57;4.60;99.90
24103;DHT22;12278;53.058;9.028;2022-11-20T13:45:08;5.30;99.90
24103;DHT22;12278;53.058;9.028;2022-11-20T13:49:38;5.90;99.90
24103;DHT22;12278;53.058;9.028;2022-11-20T14:02:36;5.80;99.90
24103;DHT22;12278;53.058;9.028;2022-11-20T14:06:46;5.90;99.90
24103;DHT22;12278;53.058;9.028;2022-11-20T14:10:47;6.30;99.90
24103;DHT22;12278;53.058;9.028;2022-11-20T14:14:52;4.90;99.90
24103;DHT22;12278;53.058;9.028;2022-11-20T14:18:55;4.40;99.90
24103;DHT22;12278;53.058;9.028;2022-11-20T14:22:57;5.50;99.90
24103;DHT22;12278;53.058;9.028;2022-11-20T14:26:57;5.30;99.90
24103;DHT22;12278;53.058;9.028;2022-11-20T14:30:58;3.50;99.90
24103;DHT22;12278;53.058;9.028;2022-11-20T14:35:06;2.90;99.90
24103;DHT22;12278;53.058;9.028;2022-11-20T14:39:11;2.30;99.90
24103;DHT22;12278;53.058;9.028;2022-11-20T14:43:26;2.00;99.90
24103;DHT22;12278;53.058;9.028;2022-11-20T14:47:29;1.60;99.90
24103;DHT22;12278;53.058;9.028;2022-11-20T14:51:36;1.50;99.90
24103;DHT22;12278;53.058;9.028;2022-11-20T14:55:41;1.30;99.90
24103;DHT22;12278;53.058;9.028;2022-11-20T14:59:43;1.20;99.90
24103;DHT22;12278;53.058;9.028;2022-11-20T15:03:45;1.00;99.90
24103;DHT22;12278;53.058;9.028;2022-11-20T15:07:52;1.00;99.90
24103;DHT22;12278;53.058;9.028;2022-11-20T15:11:57;1.00;99.90
24103;DHT22;12278;53.058;9.028;2022-11-20T15:16:00;0.90;99.90
24103;DHT22;12278;53.058;9.028;2022-11-20T15:20:02;0.80;99.90
24103;DHT22;12278;53.058;9.028;2022-11-20T15:24:09;0.80;99.90
24103;DHT22;12278;53.058;9.028;2022-11-20T15:32:45;0.70;99.90
24103;DHT22;12278;53.058;9.028;2022-11-20T15:36:46;0.60;99.90
24103;DHT22;12278;53.058;9.028;2022-11-20T15:40:47;0.60;99.90
24103;DHT22;12278;53.058;9.028;2022-11-20T15:44:56;0.60;99.90
24103;DHT22;12278;53.058;9.028;2022-11-20T15:48:57;0.50;99.90
24103;DHT22;12278;53.058;9.028;2022-11-20T15:53:00;0.60;99.90
24103;DHT22;12278;53.058;9.028;2022-11-20T15:57:02;0.60;99.90
24103;DHT22;12278;53.058;9.028;2022-11-20T16:01:04;0.60;99.90
24103;DHT22;12278;53.058;9.028;2022-11-20T16:05:10;0.60;99.90
24103;DHT22;12278;53.058;9.028;2022-11-20T16:09:11;0.50;99.90
24103;DHT22;12278;53.058;9.028;2022-11-20T16:13:15;0.50;99.90
24103;DHT22;12278;53.058;9.028;2022-11-20T16:17:34;0.60;99.90
24103;DHT22;12278;53.058;9.028;2022-11-20T16:21:44;0.60;99.90
24103;DHT22;12278;53.058;9.028;2022-11-20T16:25:46;0.60;99.90
24103;DHT22;12278;53.058;9.028;2022-11-20T16:29:53;0.50;99.90
24103;DHT22;12278;53.058;9.028;2022-11-20T16:33:55;0.50;99.90
24103;DHT22;12278;53.058;9.028;2022-11-20T16:37:57;0.60;99.90
24103;DHT22;12278;53.058;9.028;2022-11-20T16:42:03;0.50;99.90
24103;DHT22;12278;53.058;9.028;2022-11-20T16:46:03;0.50;99.90
24103;DHT22;12278;53.058;9.028;2022-11-20T16:50:05;0.50;99.90
24103;DHT22;12278;53.058;9.028;2022-11-20T16:54:07;0.60;99.90
24103;DHT22;12278;53.058;9.028;2022-11-20T16:58:08;0.70;99.90
24103;DHT22;12278;53.058;9.028;2022-11-20T17:02:09;0.70;99.90
24103;DHT22;12278;53.058;9.028;2022-11-20T17:06:15;0.60;99.90
24103;DHT22;12278;53.058;9.028;2022-11-20T17:10:15;0.70;99.90
24103;DHT22;12278;53.058;9.028;2022-11-20T17:14:16;0.60;99.90
24103;DHT22;12278;53.058;9.028;2022-11-20T17:18:17;0.50;99.90
24103;DHT22;12278;53.058;9.028;2022-11-20T17:22:17;0.50;99.90
24103;DHT22;12278;53.058;9.028;2022-11-20T17:26:20;0.40;99.90
24103;DHT22;12278;53.058;9.028;2022-11-20T17:30:21;0.40;99.90
24103;DHT22;12278;53.058;9.028;2022-11-20T17:34:22;0.50;99.90
24103;DHT22;12278;53.058;9.028;2022-11-20T17:38:23;0.50;99.90
24103;DHT22;12278;53.058;9.028;2022-11-20T17:42:23;0.50;99.90
24103;DHT22;12278;53.058;9.028;2022-11-20T17:46:30;0.40;99.90
24103;DHT22;12278;53.058;9.028;2022-11-20T17:50:34;0.30;99.90
24103;DHT22;12278;53.058;9.028;2022-11-20T17:54:38;0.30;99.90
24103;DHT22;12278;53.058;9.028;2022-11-20T17:58:43;0.40;99.90
24103;DHT22;12278;53.058;9.028;2022-11-20T18:02:48;0.40;99.90
24103;DHT22;12278;53.058;9.028;2022-11-20T18:06:49;0.20;99.90
24103;DHT22;12278;53.058;9.028;2022-11-20T18:10:50;0.10;99.90
24103;DHT22;12278;53.058;9.028;2022-11-20T18:14:50;0.20;99.90
24103;DHT22;12278;53.058;9.028;2022-11-20T18:18:55;0.30;99.90
24103;DHT22;12278;53.058;9.028;2022-11-20T18:22:56;0.20;99.90
24103;DHT22;12278;53.058;9.028;2022-11-20T18:26:57;0.20;99.90
24103;DHT22;12278;53.058;9.028;2022-11-20T18:30:58;0.30;99.90
24103;DHT22;12278;53.058;9.028;2022-11-20T18:35:04;0.40;99.90
24103;DHT22;12278;53.058;9.028;2022-11-20T18:39:05;0.40;99.90
24103;DHT22;12278;53.058;9.028;2022-11-20T18:43:09;0.30;99.90
24103;DHT22;12278;53.058;9.028;2022-11-20T18:47:37;0.40;99.90
24103;DHT22;12278;53.058;9.028;2022-11-20T18:51:50;0.30;99.90
24103;DHT22;12278;53.058;9.028;2022-11-20T18:55:51;0.20;99.90
24103;DHT22;12278;53.058;9.028;2022-11-20T18:59:53;0.20;99.90
24103;DHT22;12278;53.058;9.028;2022-11-20T19:03:53;0.20;99.90
24103;DHT22;12278;53.058;9.028;2022-11-20T19:07:54;0.20;99.90
24103;DHT22;12278;53.058;9.028;2022-11-20T19:11:58;0.10;99.90
24103;DHT22;12278;53.058;9.028;2022-11-20T19:16:13;0.10;99.90
24103;DHT22;12278;53.058;9.028;2022-11-20T19:20:14;0.10;99.90
24103;DHT22;12278;53.058;9.028;2022-11-20T19:24:15;0.10;99.90
24103;DHT22;12278;53.058;9.028;2022-11-20T19:28:17;0.00;99.90
24103;DHT22;12278;53.058;9.028;2022-11-20T19:32:17;0.00;99.90
24103;DHT22;12278;53.058;9.028;2022-11-20T19:36:24;0.00;99.90
24103;DHT22;12278;53.058;9.028;2022-11-20T19:40:25;0.10;99.90
24103;DHT22;12278;53.058;9.028;2022-11-20T19:44:27;0.10;99.90
24103;DHT22;12278;53.058;9.028;2022-11-20T19:48:45;0.10;99.90
24103;DHT22;12278;53.058;9.028;2022-11-20T19:52:46;0.10;99.90
24103;DHT22;12278;53.058;9.028;2022-11-20T19:56:46;0.10;99.90
24103;DHT22;12278;53.058;9.028;2022-11-20T20:00:49;0.10;99.90
24103;DHT22;12278;53.058;9.028;2022-11-20T20:04:49;0.10;99.90
24103;DHT22;12278;53.058;9.028;2022-11-20T20:08:55;0.20;99.90
24103;DHT22;12278;53.058;9.028;2022-11-20T20:13:15;0.00;99.90
24103;DHT22;12278;53.058;9.028;2022-11-20T20:17:16;0.10;99.90
24103;DHT22;12278;53.058;9.028;2022-11-20T20:21:16;0.10;99.90
24103;DHT22;12278;53.058;9.028;2022-11-20T20:25:18;0.10;99.90
24103;DHT22;12278;53.058;9.028;2022-11-20T20:29:18;0.10;99.90
24103;DHT22;12278;53.058;9.028;2022-11-20T20:33:23;0.10;99.90
24103;DHT22;12278;53.058;9.028;2022-11-20T20:37:23;0.10;99.90
24103;DHT22;12278;53.058;9.028;2022-11-20T20:41:28;0.10;99.90
24103;DHT22;12278;53.058;9.028;2022-11-20T20:45:29;0.10;99.90
24103;DHT22;12278;53.058;9.028;2022-11-20T20:49:32;0.10;99.90
24103;DHT22;12278;53.058;9.028;2022-11-20T20:53:38;0.10;99.90
24103;DHT22;12278;53.058;9.028;2022-11-20T20:57:39;0.00;99.90
24103;DHT22;12278;53.058;9.028;2022-11-20T21:01:41;0.00;99.90
24103;DHT22;12278;53.058;9.028;2022-11-20T21:05:41;-0.10;99.90
24103;DHT22;12278;53.058;9.028;2022-11-20T21:09:42;0.00;99.90
24103;DHT22;12278;53.058;9.028;2022-11-20T21:13:44;0.00;99.90
24103;DHT22;12278;53.058;9.028;2022-11-20T21:17:45;-0.10;99.90
24103;DHT22;12278;53.058;9.028;2022-11-20T21:21:46;-0.10;99.90
24103;DHT22;12278;53.058;9.028;2022-11-20T21:26:01;-0.20;99.90
24103;DHT22;12278;53.058;9.028;2022-11-20T21:30:02;-0.10;99.90
24103;DHT22;12278;53.058;9.028;2022-11-20T21:34:11;-0.10;99.90
24103;DHT22;12278;53.058;9.028;2022-11-20T21:38:14;-0.20;99.90
24103;DHT22;12278;53.058;9.028;2022-11-20T21:42:15;-0.20;99.90
24103;DHT22;12278;53.058;9.028;2022-11-20T21:46:17;-0.20;99.90
24103;DHT22;12278;53.058;9.028;2022-11-20T21:50:18;-0.10;99.90
24103;DHT22;12278;53.058;9.028;2022-11-20T21:54:19;-0.30;99.90
24103;DHT22;12278;53.058;9.028;2022-11-20T21:58:19;-0.40;99.90
24103;DHT22;12278;53.058;9.028;2022-11-20T22:02:20;-0.40;99.90
24103;DHT22;12278;53.058;9.028;2022-11-20T22:06:21;-0.40;99.90
24103;DHT22;12278;53.058;9.028;2022-11-20T22:10:28;-0.30;99.90
24103;DHT22;12278;53.058;9.028;2022-11-20T22:14:29;-0.20;99.90
24103;DHT22;12278;53.058;9.028;2022-11-20T22:18:29;-0.20;99.90
24103;DHT22;12278;53.058;9.028;2022-11-20T22:22:30;-0.10;99.90
24103;DHT22;12278;53.058;9.028;2022-11-20T22:26:34;-0.10;99.90
24103;DHT22;12278;53.058;9.028;2022-11-20T22:30:35;-0.10;99.90
24103;DHT22;12278;53.058;9.028;2022-11-20T22:34:35;-0.10;99.90
24103;DHT22;12278;53.058;9.028;2022-11-20T22:38:37;-0.10;99.90
24103;DHT22;12278;53.058;9.028;2022-11-20T22:42:38;-0.20;99.90
24103;DHT22;12278;53.058;9.028;2022-11-20T22:46:39;-0.20;99.90
24103;DHT22;12278;53.058;9.028;2022-11-20T22:50:43;-0.20;99.90
24103;DHT22;12278;53.058;9.028;2022-11-20T22:54:43;-0.30;99.90
24103;DHT22;12278;53.058;9.028;2022-11-20T22:58:46;-0.40;99.90
24103;DHT22;12278;53.058;9.028;2022-11-20T23:02:48;-0.60;99.90
24103;DHT22;12278;53.058;9.028;2022-11-20T23:06:48;-0.70;99.90
24103;DHT22;12278;53.058;9.028;2022-11-20T23:10:49;-0.70;99.90
24103;DHT22;12278;53.058;9.028;2022-11-20T23:14:50;-0.70;99.90
24103;DHT22;12278;53.058;9.028;2022-11-20T23:18:55;-0.80;99.90
24103;DHT22;12278;53.058;9.028;2022-11-20T23:22:56;-0.90;99.90
24103;DHT22;12278;53.058;9.028;2022-11-20T23:26:56;-1.00;99.90
24103;DHT22;12278;53.058;9.028;2022-11-20T23:30:57;-1.00;99.90
24103;DHT22;12278;53.058;9.028;2022-11-20T23:34:58;-1.00;99.90
24103;DHT22;12278;53.058;9.028;2022-11-20T23:38:59;-1.00;99.90
24103;DHT22;12278;53.058;9.028;2022-11-20T23:42:59;-1.10;99.90
24103;DHT22;12278;53.058;9.028;2022-11-20T23:47:15;-1.20;99.90
24103;DHT22;12278;53.058;9.028;2022-11-20T23:51:16;-1.30;99.90
24103;DHT22;12278;53.058;9.028;2022-11-20T23:55:17;-1.30;99.90
24103;DHT22;12278;53.058;9.028;2022-11-20T23:59:18;-1.30;99.90
